Gable, SC (29051)

1:44 PM EDT on March 28, 2015 (GMT -0400)
Williamsburg County | | Change Station
CLOSE
Current Station
Airport
Location: Kingstree,
Elevation: 66 ft
Nearby Weather Stations
Active Advisory: Freeze Warning

Elev 66 ft 33.72 °N, 79.86 °W | Updated 9 minutes ago

Partly Cloudy
Partly Cloudy
54 °F
Feels Like 54 °F
N
13
Wind Variable Wind from WNW
Gusts 18 mph

Today
High -- | Low -- °F
--% Chance of Precip.
Yesterday
High -- | Low -- °F
Precip. -- in
7:13 AM 7:37 PM
Waxing Gibbous, 64% visible
Pressure 30.06 in
Visibility 10.0 miles
Clouds Scattered Clouds 6000 ft
Dew Point 41 °F
Humidity 62%
Rainfall 0.00 in
Snow Depth Not available.
UV 8 out of 12
Pollen 9.40 out of 12
Air Quality Not available.
Flu Activity Not available.
METAR KCKI 281735Z AUTO 29011G16KT 10SM SCT060 12/05 A3006 RMK AO2

More Conditions Fewer Conditions

Pressure 30.06 in
Visibility 10.0 miles
Clouds Scattered Clouds 6000 ft
Dew Point 41 °F
Humidity 62%
Rainfall 0.00 in
Snow Depth Not available.
UV 8 out of 12
Pollen 9.40 out of 12
Air Quality Not available.
Flu Activity Not available.
METAR KCKI 281735Z AUTO 29011G16KT 10SM SCT060 12/05 A3006 RMK AO2

More Conditions Fewer Conditions

10-Day Weather Forecast

Almanac

Astronomy

Mar. 28, 2015 Rise Set
Actual Time
Civil Twilight
Nautical Twilight
Astronomical Twilight
Moon
Length of Visible Light
Length of Day
Tomorrow will be .
, % of the Moon is Illuminated

Today's Extremes

State Highs State Lows

Community

WunderPhotos

Upload Photos

1,809,034 photos uploaded!

WunderBlogs® & News

Nearby

Air Quality

  Air Quality AQ Index Pollutant
Not available.

Snow Depth

Station Depth Elevation

Earthquake Activity

City Distance Mag. Time & Date
Minimum magnitude displayed is 2.5.

Coastal Water Temperatures

Place Temperature

Stations

Nearby Weather Stations

Station Location Temp. Windchill Dew Point Humidity Wind Precip. Elev Updated Type
                   
Freeze Warning
Statement as of 10:58 AM EDT on March 28, 2015

... Freeze warning remains in effect from 2 am to 10 am EDT
Sunday...

* temperature... the temperatures across the region are expected to
fall to at or below freezing for a few hours early Sunday
morning. Morning lows Sunday morning will range from the middle
to upper 20s in the northern midlands and Pee Dee... to around 30
across the rest of the midlands and central Savannah River area.

* Impacts... freezing conditions may kill crops and other
sensitive vegetation that have begun growing and blooming
early this Spring. Persons with agricultural interests should
prepare for a period of freezing temperatures and take the
necessary precautions.

Precautionary/preparedness actions...

A freeze warning means sub-freezing temperatures are imminent or
highly likely. These conditions will kill crops and other
sensitive vegetation.